Skip Navigation LinksHome page > Weather > Current weather Skip Navigation Links

Current Weather

Eureka, Nunavut

For information only: do not use for flight planning or navigation.
Latest weather
Observation time Thursday, July 31, 2014 8:00 AM CDT
Local time Thursday, July 31, 2014 8:30 AM CDT
Flight conditions Visual Meteorological Conditions
Winds
Wind direction West (260°)
Wind speed 8 mph
Visibility 15 mi.
Sky condition
Ceiling unlimited
Cloud layer few clouds 7,000 ft.
Cloud layer few clouds 14,000 ft.
Temperature 45°F
Dewpoint 34°F
Altimeter 30.09 in.Hg
Derived measurements
Relative humidity 66%
Wind chill 40°F
Density altitude -1057 ft.
Sea-level pressure 30.10 in.Hg
METAR CWEU 311300Z 26007KT 15SM FEW070 FEW140 07/01 A3009 RMK AC1AC1 SLP192

Settings

Location code

InnerDrive.Weather 4.0.5294.0 Release CLR 4.0.30319.34014
Copyright ©2014 Inner Drive Technology. All rights reserved. Portions Copyright ©1986-2014 David Braverman.

Find weather

Site navigation


Skip Navigation Links

Place info

Page info

PayPal - The safer, easier way to pay online!

Return home.

Copyright ©2014 Inner Drive Technology. Purveyors of fine, hand-crafted computer software. Page printed 2014-07-31T13:30:08 UTC.